sensor_id;sensor_type;location;lat;lon;timestamp;pressure;altitude;pressure_sealevel;temperature;humidity
28000;BME280;15328;50.860;10.562;2024-01-15T00:01:06;94813.25;;;-0.70;67.65
28000;BME280;15328;50.860;10.562;2024-01-15T00:06:07;94796.88;;;-0.57;66.70
28000;BME280;15328;50.860;10.562;2024-01-15T00:11:07;94789.97;;;-0.65;65.60
28000;BME280;15328;50.860;10.562;2024-01-15T00:16:07;94773.22;;;-0.77;66.08
28000;BME280;15328;50.860;10.562;2024-01-15T00:21:08;94763.81;;;-0.93;67.19
28000;BME280;15328;50.860;10.562;2024-01-15T00:26:08;94749.41;;;-1.10;67.36
28000;BME280;15328;50.860;10.562;2024-01-15T00:31:08;94759.16;;;-0.98;66.58
28000;BME280;15328;50.860;10.562;2024-01-15T00:36:09;94766.38;;;-1.00;65.41
28000;BME280;15328;50.860;10.562;2024-01-15T00:41:09;94765.56;;;-1.00;66.75
28000;BME280;15328;50.860;10.562;2024-01-15T00:46:10;94770.38;;;-1.04;66.05
28000;BME280;15328;50.860;10.562;2024-01-15T00:51:10;94759.97;;;-0.97;65.77
28000;BME280;15328;50.860;10.562;2024-01-15T00:56:10;94762.34;;;-1.02;66.32
28000;BME280;15328;50.860;10.562;2024-01-15T01:01:11;94757.97;;;-0.95;65.41
28000;BME280;15328;50.860;10.562;2024-01-15T01:06:11;94755.50;;;-1.03;65.51
28000;BME280;15328;50.860;10.562;2024-01-15T01:11:15;94750.59;;;-1.13;65.37
28000;BME280;15328;50.860;10.562;2024-01-15T01:16:16;94731.03;;;-1.23;66.47
28000;BME280;15328;50.860;10.562;2024-01-15T01:21:16;94729.41;;;-1.25;66.49
28000;BME280;15328;50.860;10.562;2024-01-15T01:26:17;94725.84;;;-1.17;65.62
28000;BME280;15328;50.860;10.562;2024-01-15T01:31:18;94739.72;;;-1.16;66.02
28000;BME280;15328;50.860;10.562;2024-01-15T01:36:18;94722.50;;;-1.11;65.67
28000;BME280;15328;50.860;10.562;2024-01-15T01:41:18;94732.13;;;-1.11;65.75
28000;BME280;15328;50.860;10.562;2024-01-15T01:46:19;94734.13;;;-0.92;66.36
28000;BME280;15328;50.860;10.562;2024-01-15T01:51:20;94725.78;;;-0.81;65.17
28000;BME280;15328;50.860;10.562;2024-01-15T01:56:21;94737.84;;;-0.80;63.93
28000;BME280;15328;50.860;10.562;2024-01-15T02:01:21;94727.59;;;-0.81;64.06
28000;BME280;15328;50.860;10.562;2024-01-15T02:06:23;94738.69;;;-0.73;63.97
28000;BME280;15328;50.860;10.562;2024-01-15T02:11:23;94749.16;;;-0.73;63.56
28000;BME280;15328;50.860;10.562;2024-01-15T02:16:24;94750.75;;;-0.72;63.76
28000;BME280;15328;50.860;10.562;2024-01-15T02:21:24;94756.41;;;-0.68;63.96
28000;BME280;15328;50.860;10.562;2024-01-15T02:26:26;94742.06;;;-0.79;64.36
28000;BME280;15328;50.860;10.562;2024-01-15T02:31:27;94728.69;;;-0.90;63.91
28000;BME280;15328;50.860;10.562;2024-01-15T02:36:27;94718.81;;;-0.95;65.25
28000;BME280;15328;50.860;10.562;2024-01-15T02:41:27;94732.94;;;-0.89;64.62
28000;BME280;15328;50.860;10.562;2024-01-15T02:46:28;94729.75;;;-0.85;63.94
28000;BME280;15328;50.860;10.562;2024-01-15T02:51:28;94747.47;;;-0.80;64.07
28000;BME280;15328;50.860;10.562;2024-01-15T02:56:28;94754.66;;;-0.82;64.49
28000;BME280;15328;50.860;10.562;2024-01-15T03:01:29;94762.00;;;-0.71;64.63
28000;BME280;15328;50.860;10.562;2024-01-15T03:06:29;94755.59;;;-0.69;64.48
28000;BME280;15328;50.860;10.562;2024-01-15T03:11:29;94760.78;;;-0.75;64.04
28000;BME280;15328;50.860;10.562;2024-01-15T03:16:36;94756.22;;;-0.67;63.69
28000;BME280;15328;50.860;10.562;2024-01-15T03:21:38;94744.16;;;-0.68;63.57
28000;BME280;15328;50.860;10.562;2024-01-15T03:26:38;94748.19;;;-0.65;63.90
28000;BME280;15328;50.860;10.562;2024-01-15T03:31:38;94739.31;;;-0.71;64.03
28000;BME280;15328;50.860;10.562;2024-01-15T03:36:39;94747.41;;;-0.87;64.54
28000;BME280;15328;50.860;10.562;2024-01-15T03:41:39;94771.09;;;-0.88;64.72
28000;BME280;15328;50.860;10.562;2024-01-15T03:46:40;94775.88;;;-0.71;64.75
28000;BME280;15328;50.860;10.562;2024-01-15T03:51:40;94772.88;;;-0.68;64.45
28000;BME280;15328;50.860;10.562;2024-01-15T03:56:40;94776.03;;;-0.79;63.95
28000;BME280;15328;50.860;10.562;2024-01-15T04:01:41;94762.44;;;-0.68;64.61
28000;BME280;15328;50.860;10.562;2024-01-15T04:06:41;94780.84;;;-0.76;64.44
28000;BME280;15328;50.860;10.562;2024-01-15T04:11:41;94773.50;;;-0.66;64.51
28000;BME280;15328;50.860;10.562;2024-01-15T04:16:42;94769.28;;;-0.67;64.25
28000;BME280;15328;50.860;10.562;2024-01-15T04:21:42;94758.03;;;-0.67;63.89
28000;BME280;15328;50.860;10.562;2024-01-15T04:26:42;94750.63;;;-0.64;64.52
28000;BME280;15328;50.860;10.562;2024-01-15T04:31:43;94739.22;;;-0.56;63.57
28000;BME280;15328;50.860;10.562;2024-01-15T04:36:43;94743.78;;;-0.65;63.55
28000;BME280;15328;50.860;10.562;2024-01-15T04:41:43;94762.38;;;-0.74;64.07
28000;BME280;15328;50.860;10.562;2024-01-15T04:46:44;94755.13;;;-0.79;63.71
28000;BME280;15328;50.860;10.562;2024-01-15T04:51:44;94749.16;;;-0.73;63.64
28000;BME280;15328;50.860;10.562;2024-01-15T04:56:44;94760.81;;;-0.69;64.23
28000;BME280;15328;50.860;10.562;2024-01-15T05:01:45;94744.34;;;-0.69;63.91
28000;BME280;15328;50.860;10.562;2024-01-15T05:06:45;94744.31;;;-0.76;64.21
28000;BME280;15328;50.860;10.562;2024-01-15T05:11:45;94750.44;;;-0.83;64.57
28000;BME280;15328;50.860;10.562;2024-01-15T05:16:47;94749.41;;;-0.89;64.29
28000;BME280;15328;50.860;10.562;2024-01-15T05:21:48;94758.22;;;-0.90;64.64
28000;BME280;15328;50.860;10.562;2024-01-15T05:26:48;94743.78;;;-0.86;63.91
28000;BME280;15328;50.860;10.562;2024-01-15T05:31:48;94742.75;;;-0.91;64.43
28000;BME280;15328;50.860;10.562;2024-01-15T05:36:49;94746.22;;;-0.84;64.32
28000;BME280;15328;50.860;10.562;2024-01-15T05:41:49;94738.03;;;-0.81;64.56
28000;BME280;15328;50.860;10.562;2024-01-15T05:46:50;94732.06;;;-0.75;64.39
28000;BME280;15328;50.860;10.562;2024-01-15T05:51:50;94721.22;;;-0.72;63.57
28000;BME280;15328;50.860;10.562;2024-01-15T05:56:51;94701.00;;;-0.64;63.92
28000;BME280;15328;50.860;10.562;2024-01-15T06:01:51;94721.47;;;-0.67;64.67
28000;BME280;15328;50.860;10.562;2024-01-15T06:06:52;94702.22;;;-0.59;63.34
28000;BME280;15328;50.860;10.562;2024-01-15T06:11:52;94706.44;;;-0.58;63.52
28000;BME280;15328;50.860;10.562;2024-01-15T06:16:52;94699.66;;;-0.53;63.14
28000;BME280;15328;50.860;10.562;2024-01-15T06:21:53;94706.44;;;-0.58;63.82
28000;BME280;15328;50.860;10.562;2024-01-15T06:26:53;94700.47;;;-0.52;62.75
28000;BME280;15328;50.860;10.562;2024-01-15T06:31:53;94700.94;;;-0.42;62.31
28000;BME280;15328;50.860;10.562;2024-01-15T06:36:54;94699.28;;;-0.50;62.68
28000;BME280;15328;50.860;10.562;2024-01-15T06:41:54;94690.69;;;-0.44;62.58
28000;BME280;15328;50.860;10.562;2024-01-15T06:46:54;94698.13;;;-0.41;62.10
28000;BME280;15328;50.860;10.562;2024-01-15T06:51:57;94694.72;;;-0.41;62.31
28000;BME280;15328;50.860;10.562;2024-01-15T06:56:57;94687.88;;;-0.42;62.29
28000;BME280;15328;50.860;10.562;2024-01-15T07:01:58;94689.88;;;-0.44;62.08
28000;BME280;15328;50.860;10.562;2024-01-15T07:06:59;94686.66;;;-0.46;61.57
28000;BME280;15328;50.860;10.562;2024-01-15T07:11:59;94707.69;;;-0.54;61.48
28000;BME280;15328;50.860;10.562;2024-01-15T07:17:00;94691.25;;;-0.48;61.34
28000;BME280;15328;50.860;10.562;2024-01-15T07:22:00;94693.47;;;-0.45;61.08
28000;BME280;15328;50.860;10.562;2024-01-15T07:27:00;94695.69;;;-0.49;62.02
28000;BME280;15328;50.860;10.562;2024-01-15T07:32:01;94704.69;;;-0.51;61.21
28000;BME280;15328;50.860;10.562;2024-01-15T07:37:01;94710.78;;;-0.44;61.31
28000;BME280;15328;50.860;10.562;2024-01-15T07:42:02;94709.31;;;-0.53;61.67
28000;BME280;15328;50.860;10.562;2024-01-15T07:47:03;94725.03;;;-0.47;61.68
28000;BME280;15328;50.860;10.562;2024-01-15T07:52:04;94731.50;;;-0.36;61.58
28000;BME280;15328;50.860;10.562;2024-01-15T07:57:05;94732.63;;;-0.24;61.48
28000;BME280;15328;50.860;10.562;2024-01-15T08:02:05;94728.03;;;-0.15;60.86
28000;BME280;15328;50.860;10.562;2024-01-15T08:07:06;94712.66;;;-0.32;61.57
28000;BME280;15328;50.860;10.562;2024-01-15T08:12:07;94706.00;;;-0.34;61.55
28000;BME280;15328;50.860;10.562;2024-01-15T08:17:08;94697.16;;;-0.33;60.77
28000;BME280;15328;50.860;10.562;2024-01-15T08:22:08;94687.72;;;-0.34;61.79
28000;BME280;15328;50.860;10.562;2024-01-15T08:27:10;94686.09;;;-0.35;61.40
28000;BME280;15328;50.860;10.562;2024-01-15T08:32:10;94691.19;;;-0.27;61.07
28000;BME280;15328;50.860;10.562;2024-01-15T08:37:14;94695.06;;;-0.16;61.54
28000;BME280;15328;50.860;10.562;2024-01-15T08:42:14;94703.53;;;-0.08;61.12
28000;BME280;15328;50.860;10.562;2024-01-15T08:47:15;94711.03;;;0.02;61.25
28000;BME280;15328;50.860;10.562;2024-01-15T08:52:15;94701.63;;;0.14;60.83
28000;BME280;15328;50.860;10.562;2024-01-15T08:57:15;94709.25;;;0.09;60.57
28000;BME280;15328;50.860;10.562;2024-01-15T09:02:16;94727.78;;;0.14;61.57
28000;BME280;15328;50.860;10.562;2024-01-15T09:07:16;94724.84;;;0.37;60.61
28000;BME280;15328;50.860;10.562;2024-01-15T09:12:16;94720.03;;;0.47;60.22
28000;BME280;15328;50.860;10.562;2024-01-15T09:17:18;94715.63;;;0.48;59.82
28000;BME280;15328;50.860;10.562;2024-01-15T09:22:18;94715.59;;;0.41;59.71
28000;BME280;15328;50.860;10.562;2024-01-15T09:27:19;94731.31;;;0.54;60.05
28000;BME280;15328;50.860;10.562;2024-01-15T09:32:19;94725.72;;;0.57;59.56
28000;BME280;15328;50.860;10.562;2024-01-15T09:37:20;94725.13;;;0.55;59.82
28000;BME280;15328;50.860;10.562;2024-01-15T09:42:20;94740.22;;;0.67;59.53
28000;BME280;15328;50.860;10.562;2024-01-15T09:47:21;94748.50;;;0.70;58.98
28000;BME280;15328;50.860;10.562;2024-01-15T09:52:22;94748.09;;;0.67;59.02
28000;BME280;15328;50.860;10.562;2024-01-15T09:57:22;94731.56;;;0.66;59.29
28000;BME280;15328;50.860;10.562;2024-01-15T10:02:22;94726.56;;;0.71;59.36
28000;BME280;15328;50.860;10.562;2024-01-15T10:07:23;94725.94;;;0.76;58.83
28000;BME280;15328;50.860;10.562;2024-01-15T10:12:25;94735.22;;;0.72;59.43
28000;BME280;15328;50.860;10.562;2024-01-15T10:17:27;94721.16;;;0.86;58.26
28000;BME280;15328;50.860;10.562;2024-01-15T10:22:28;94721.31;;;0.78;58.77
28000;BME280;15328;50.860;10.562;2024-01-15T10:27:28;94730.38;;;0.82;58.76
28000;BME280;15328;50.860;10.562;2024-01-15T10:32:28;94707.22;;;0.66;59.27
28000;BME280;15328;50.860;10.562;2024-01-15T10:37:32;94705.41;;;0.73;59.13
28000;BME280;15328;50.860;10.562;2024-01-15T10:42:33;94695.16;;;0.78;59.48
28000;BME280;15328;50.860;10.562;2024-01-15T10:47:33;94698.19;;;0.95;58.36
28000;BME280;15328;50.860;10.562;2024-01-15T10:52:36;94686.72;;;0.96;58.56
28000;BME280;15328;50.860;10.562;2024-01-15T10:57:37;94697.19;;;1.02;58.88
28000;BME280;15328;50.860;10.562;2024-01-15T11:02:38;94698.63;;;1.18;58.15
28000;BME280;15328;50.860;10.562;2024-01-15T11:07:39;94675.25;;;1.16;57.40
28000;BME280;15328;50.860;10.562;2024-01-15T11:12:41;94670.19;;;1.48;59.79
28000;BME280;15328;50.860;10.562;2024-01-15T11:18:01;94667.66;;;1.86;57.62
28000;BME280;15328;50.860;10.562;2024-01-15T11:23:02;94666.00;;;2.50;56.14
28000;BME280;15328;50.860;10.562;2024-01-15T11:28:03;94658.13;;;2.50;52.71
28000;BME280;15328;50.860;10.562;2024-01-15T11:33:04;94645.72;;;2.25;54.49
28000;BME280;15328;50.860;10.562;2024-01-15T11:38:07;94647.03;;;2.03;53.75
28000;BME280;15328;50.860;10.562;2024-01-15T11:43:07;94638.81;;;1.93;55.54
28000;BME280;15328;50.860;10.562;2024-01-15T11:48:15;94642.03;;;1.88;56.10
28000;BME280;15328;50.860;10.562;2024-01-15T11:53:33;94649.56;;;1.71;56.20
28000;BME280;15328;50.860;10.562;2024-01-15T11:58:36;94637.47;;;1.64;57.18
28000;BME280;15328;50.860;10.562;2024-01-15T12:03:37;94642.75;;;1.50;56.77
28000;BME280;15328;50.860;10.562;2024-01-15T12:08:37;94626.22;;;1.37;58.27
28000;BME280;15328;50.860;10.562;2024-01-15T12:13:38;94619.78;;;1.33;58.12
28000;BME280;15328;50.860;10.562;2024-01-15T12:18:38;94611.53;;;1.29;57.60
28000;BME280;15328;50.860;10.562;2024-01-15T12:23:39;94617.81;;;1.15;58.52
28000;BME280;15328;50.860;10.562;2024-01-15T12:28:39;94603.31;;;1.12;58.90
28000;BME280;15328;50.860;10.562;2024-01-15T12:33:40;94618.25;;;1.12;59.41
28000;BME280;15328;50.860;10.562;2024-01-15T12:38:40;94607.56;;;1.13;59.88
28000;BME280;15328;50.860;10.562;2024-01-15T12:43:41;94607.53;;;1.20;60.46
28000;BME280;15328;50.860;10.562;2024-01-15T12:48:41;94601.72;;;1.11;60.01
28000;BME280;15328;50.860;10.562;2024-01-15T12:53:42;94601.09;;;1.09;60.75
28000;BME280;15328;50.860;10.562;2024-01-15T12:58:42;94602.72;;;1.10;61.82
28000;BME280;15328;50.860;10.562;2024-01-15T13:03:43;94619.22;;;1.17;61.28
28000;BME280;15328;50.860;10.562;2024-01-15T13:08:43;94617.63;;;1.16;61.49
28000;BME280;15328;50.860;10.562;2024-01-15T13:13:43;94607.97;;;1.10;60.37
28000;BME280;15328;50.860;10.562;2024-01-15T13:18:44;94612.56;;;1.08;60.97
28000;BME280;15328;50.860;10.562;2024-01-15T13:23:44;94635.13;;;1.09;61.27
28000;BME280;15328;50.860;10.562;2024-01-15T13:28:45;94633.34;;;1.16;61.17
28000;BME280;15328;50.860;10.562;2024-01-15T13:33:45;94642.81;;;1.17;61.55
28000;BME280;15328;50.860;10.562;2024-01-15T13:38:45;94636.31;;;1.33;60.99
28000;BME280;15328;50.860;10.562;2024-01-15T13:43:49;94640.97;;;1.38;60.97
28000;BME280;15328;50.860;10.562;2024-01-15T13:48:50;94642.16;;;1.48;60.11
28000;BME280;15328;50.860;10.562;2024-01-15T13:53:51;94657.06;;;1.48;60.53
28000;BME280;15328;50.860;10.562;2024-01-15T13:58:51;94656.44;;;1.52;59.57
28000;BME280;15328;50.860;10.562;2024-01-15T14:03:53;94646.19;;;1.51;59.95
28000;BME280;15328;50.860;10.562;2024-01-15T14:08:53;94649.41;;;1.46;60.51
28000;BME280;15328;50.860;10.562;2024-01-15T14:13:54;94647.41;;;1.48;60.82
28000;BME280;15328;50.860;10.562;2024-01-15T14:18:54;94661.09;;;1.50;60.57
28000;BME280;15328;50.860;10.562;2024-01-15T14:23:54;94661.09;;;1.50;60.46
28000;BME280;15328;50.860;10.562;2024-01-15T14:28:55;94667.94;;;1.51;58.76
28000;BME280;15328;50.860;10.562;2024-01-15T14:33:55;94668.56;;;1.53;58.35
28000;BME280;15328;50.860;10.562;2024-01-15T14:38:56;94676.81;;;1.50;58.28
28000;BME280;15328;50.860;10.562;2024-01-15T14:43:56;94668.59;;;1.40;58.11
28000;BME280;15328;50.860;10.562;2024-01-15T14:48:57;94678.44;;;1.32;59.20
28000;BME280;15328;50.860;10.562;2024-01-15T14:53:57;94691.94;;;1.35;58.69
28000;BME280;15328;50.860;10.562;2024-01-15T14:58:58;94688.94;;;1.32;58.68
28000;BME280;15328;50.860;10.562;2024-01-15T15:03:58;94704.03;;;1.30;59.60
28000;BME280;15328;50.860;10.562;2024-01-15T15:08:58;94685.91;;;1.35;59.69
28000;BME280;15328;50.860;10.562;2024-01-15T15:13:59;94690.94;;;1.36;58.16
28000;BME280;15328;50.860;10.562;2024-01-15T15:19:00;94709.28;;;1.30;57.84
28000;BME280;15328;50.860;10.562;2024-01-15T15:24:01;94699.22;;;1.27;59.07
28000;BME280;15328;50.860;10.562;2024-01-15T15:29:01;94702.44;;;1.22;59.02
28000;BME280;15328;50.860;10.562;2024-01-15T15:34:02;94704.25;;;1.21;58.41
28000;BME280;15328;50.860;10.562;2024-01-15T15:39:03;94708.50;;;1.16;59.15
28000;BME280;15328;50.860;10.562;2024-01-15T15:44:03;94719.97;;;1.15;58.43
28000;BME280;15328;50.860;10.562;2024-01-15T15:49:03;94709.47;;;1.08;59.16
28000;BME280;15328;50.860;10.562;2024-01-15T15:54:06;94721.56;;;1.09;59.07
28000;BME280;15328;50.860;10.562;2024-01-15T15:59:07;94715.13;;;1.05;58.79
28000;BME280;15328;50.860;10.562;2024-01-15T16:04:09;94722.97;;;1.05;58.70
28000;BME280;15328;50.860;10.562;2024-01-15T16:09:09;94723.19;;;0.97;59.20
28000;BME280;15328;50.860;10.562;2024-01-15T16:14:12;94721.97;;;1.00;59.15
28000;BME280;15328;50.860;10.562;2024-01-15T16:19:13;94727.19;;;1.00;58.97
28000;BME280;15328;50.860;10.562;2024-01-15T16:24:13;94738.28;;;1.02;59.02
28000;BME280;15328;50.860;10.562;2024-01-15T16:29:13;94732.25;;;1.08;59.64
28000;BME280;15328;50.860;10.562;2024-01-15T16:34:14;94732.25;;;1.08;59.75
28000;BME280;15328;50.860;10.562;2024-01-15T16:39:14;94738.88;;;1.04;60.41
28000;BME280;15328;50.860;10.562;2024-01-15T16:44:14;94755.59;;;1.03;60.78
28000;BME280;15328;50.860;10.562;2024-01-15T16:49:15;94765.06;;;0.97;60.97
28000;BME280;15328;50.860;10.562;2024-01-15T16:54:15;94758.81;;;0.98;61.86
28000;BME280;15328;50.860;10.562;2024-01-15T16:59:15;94767.09;;;0.95;61.98
28000;BME280;15328;50.860;10.562;2024-01-15T17:04:16;94778.56;;;0.94;61.99
28000;BME280;15328;50.860;10.562;2024-01-15T17:09:16;94794.66;;;0.91;61.24
28000;BME280;15328;50.860;10.562;2024-01-15T17:14:16;94796.28;;;0.85;61.12
28000;BME280;15328;50.860;10.562;2024-01-15T17:19:17;94800.72;;;0.91;61.03
28000;BME280;15328;50.860;10.562;2024-01-15T17:24:18;94795.09;;;0.95;60.50
28000;BME280;15328;50.860;10.562;2024-01-15T17:29:18;94793.47;;;1.00;60.77
28000;BME280;15328;50.860;10.562;2024-01-15T17:34:20;94805.56;;;0.95;61.00
28000;BME280;15328;50.860;10.562;2024-01-15T17:39:21;94816.63;;;0.97;61.19
28000;BME280;15328;50.860;10.562;2024-01-15T17:44:21;94826.91;;;0.91;62.66
28000;BME280;15328;50.860;10.562;2024-01-15T17:49:24;94836.16;;;0.94;62.42
28000;BME280;15328;50.860;10.562;2024-01-15T17:54:26;94844.03;;;1.01;62.22
28000;BME280;15328;50.860;10.562;2024-01-15T17:59:28;94874.06;;;0.98;61.94
28000;BME280;15328;50.860;10.562;2024-01-15T18:04:28;94881.50;;;0.95;62.22
28000;BME280;15328;50.860;10.562;2024-01-15T18:09:29;94886.13;;;0.92;61.78
28000;BME280;15328;50.860;10.562;2024-01-15T18:14:29;94902.66;;;1.00;61.99
28000;BME280;15328;50.860;10.562;2024-01-15T18:19:30;94915.56;;;1.08;61.94
28000;BME280;15328;50.860;10.562;2024-01-15T18:24:30;94916.63;;;1.13;61.77
28000;BME280;15328;50.860;10.562;2024-01-15T18:29:30;94922.06;;;1.12;61.22
28000;BME280;15328;50.860;10.562;2024-01-15T18:34:31;94908.97;;;1.18;60.21
28000;BME280;15328;50.860;10.562;2024-01-15T18:39:32;94928.53;;;1.22;59.75
28000;BME280;15328;50.860;10.562;2024-01-15T18:44:32;94959.19;;;1.29;59.50
28000;BME280;15328;50.860;10.562;2024-01-15T18:49:33;94947.91;;;1.28;59.47
28000;BME280;15328;50.860;10.562;2024-01-15T18:54:33;94969.88;;;1.27;59.25
28000;BME280;15328;50.860;10.562;2024-01-15T18:59:34;94954.75;;;1.22;58.53
28000;BME280;15328;50.860;10.562;2024-01-15T19:04:35;94967.84;;;1.29;58.64
28000;BME280;15328;50.860;10.562;2024-01-15T19:09:36;94986.97;;;1.23;59.40
28000;BME280;15328;50.860;10.562;2024-01-15T19:14:36;94984.97;;;1.25;57.78
28000;BME280;15328;50.860;10.562;2024-01-15T19:19:36;94985.78;;;1.26;57.83
28000;BME280;15328;50.860;10.562;2024-01-15T19:24:37;94981.94;;;1.21;58.04
28000;BME280;15328;50.860;10.562;2024-01-15T19:29:39;95007.31;;;1.21;57.18
28000;BME280;15328;50.860;10.562;2024-01-15T19:34:42;95014.38;;;1.20;57.77
28000;BME280;15328;50.860;10.562;2024-01-15T19:39:42;95028.88;;;1.16;56.76
28000;BME280;15328;50.860;10.562;2024-01-15T19:44:42;95014.28;;;1.07;55.87
28000;BME280;15328;50.860;10.562;2024-01-15T19:49:43;95039.25;;;1.03;55.29
28000;BME280;15328;50.860;10.562;2024-01-15T19:54:46;95043.69;;;1.03;55.42
28000;BME280;15328;50.860;10.562;2024-01-15T19:59:46;95034.59;;;0.99;54.63
28000;BME280;15328;50.860;10.562;2024-01-15T20:04:48;95045.69;;;1.01;54.53
28000;BME280;15328;50.860;10.562;2024-01-15T20:09:48;95064.22;;;0.99;54.77
28000;BME280;15328;50.860;10.562;2024-01-15T20:14:48;95073.13;;;1.05;55.10
28000;BME280;15328;50.860;10.562;2024-01-15T20:19:49;95071.69;;;1.02;55.48
28000;BME280;15328;50.860;10.562;2024-01-15T20:24:50;95075.88;;;0.97;55.04
28000;BME280;15328;50.860;10.562;2024-01-15T20:29:50;95071.22;;;0.92;55.59
28000;BME280;15328;50.860;10.562;2024-01-15T20:34:51;95073.06;;;0.98;55.20
28000;BME280;15328;50.860;10.562;2024-01-15T20:39:51;95069.81;;;0.89;56.38
28000;BME280;15328;50.860;10.562;2024-01-15T20:44:51;95088.16;;;0.96;56.08
28000;BME280;15328;50.860;10.562;2024-01-15T20:49:53;95084.56;;;0.97;55.73
28000;BME280;15328;50.860;10.562;2024-01-15T20:54:54;95083.31;;;0.93;55.46
28000;BME280;15328;50.860;10.562;2024-01-15T20:59:55;95088.38;;;0.95;56.33
28000;BME280;15328;50.860;10.562;2024-01-15T21:04:55;95076.88;;;0.96;55.89
28000;BME280;15328;50.860;10.562;2024-01-15T21:09:55;95092.38;;;0.90;57.07
28000;BME280;15328;50.860;10.562;2024-01-15T21:14:57;95103.47;;;0.92;56.92
28000;BME280;15328;50.860;10.562;2024-01-15T21:19:57;95110.75;;;0.76;58.71
28000;BME280;15328;50.860;10.562;2024-01-15T21:24:58;95111.53;;;0.70;59.34
28000;BME280;15328;50.860;10.562;2024-01-15T21:29:58;95111.09;;;0.66;59.58
28000;BME280;15328;50.860;10.562;2024-01-15T21:34:59;95115.75;;;0.71;59.33
28000;BME280;15328;50.860;10.562;2024-01-15T21:40:00;95122.13;;;0.61;58.71
28000;BME280;15328;50.860;10.562;2024-01-15T21:45:00;95131.84;;;0.68;59.37
28000;BME280;15328;50.860;10.562;2024-01-15T21:50:01;95126.84;;;0.73;59.66
28000;BME280;15328;50.860;10.562;2024-01-15T21:55:01;95146.59;;;0.75;59.45
28000;BME280;15328;50.860;10.562;2024-01-15T22:00:03;95127.72;;;0.80;59.02
28000;BME280;15328;50.860;10.562;2024-01-15T22:05:07;95139.19;;;0.79;59.11
28000;BME280;15328;50.860;10.562;2024-01-15T22:10:08;95155.34;;;0.82;59.21
28000;BME280;15328;50.860;10.562;2024-01-15T22:15:09;95161.66;;;0.91;58.81
28000;BME280;15328;50.860;10.562;2024-01-15T22:20:10;95174.84;;;0.80;58.81
28000;BME280;15328;50.860;10.562;2024-01-15T22:25:10;95177.16;;;0.89;58.58
28000;BME280;15328;50.860;10.562;2024-01-15T22:30:11;95185.59;;;0.85;58.77
28000;BME280;15328;50.860;10.562;2024-01-15T22:35:12;95178.91;;;0.82;59.05
28000;BME280;15328;50.860;10.562;2024-01-15T22:40:12;95186.38;;;0.85;58.63
28000;BME280;15328;50.860;10.562;2024-01-15T22:45:14;95203.09;;;0.84;57.88
28000;BME280;15328;50.860;10.562;2024-01-15T22:50:14;95215.56;;;0.82;58.55
28000;BME280;15328;50.860;10.562;2024-01-15T22:55:14;95211.00;;;0.91;57.49
28000;BME280;15328;50.860;10.562;2024-01-15T23:00:15;95212.56;;;0.85;57.30
28000;BME280;15328;50.860;10.562;2024-01-15T23:05:18;95213.88;;;0.75;57.71
28000;BME280;15328;50.860;10.562;2024-01-15T23:10:19;95222.03;;;0.65;57.27
28000;BME280;15328;50.860;10.562;2024-01-15T23:15:20;95235.00;;;0.73;57.50
28000;BME280;15328;50.860;10.562;2024-01-15T23:20:23;95233.63;;;0.77;57.49
28000;BME280;15328;50.860;10.562;2024-01-15T23:25:23;95236.31;;;0.84;58.02
28000;BME280;15328;50.860;10.562;2024-01-15T23:30:24;95242.19;;;0.86;56.36
28000;BME280;15328;50.860;10.562;2024-01-15T23:35:24;95246.06;;;0.90;56.38
28000;BME280;15328;50.860;10.562;2024-01-15T23:40:24;95250.53;;;0.96;56.22
28000;BME280;15328;50.860;10.562;2024-01-15T23:45:25;95250.91;;;0.93;56.05
28000;BME280;15328;50.860;10.562;2024-01-15T23:50:25;95259.63;;;1.00;56.71
28000;BME280;15328;50.860;10.562;2024-01-15T23:55:25;95268.88;;;0.96;57.14
